createdAt,value
2023-03-06T00:01:49.214Z,83.15
2023-03-06T00:04:15.848Z,83.69
2023-03-06T00:06:42.305Z,83.59
2023-03-06T00:09:09.738Z,83.18
2023-03-06T00:11:36.701Z,83.52
2023-03-06T00:14:03.090Z,83.52
2023-03-06T00:16:29.454Z,83.18
2023-03-06T00:18:55.909Z,83.42
2023-03-06T00:21:22.251Z,83.66
2023-03-06T00:23:48.611Z,83.83
2023-03-06T00:26:14.946Z,83.83
2023-03-06T00:28:41.371Z,83.35
2023-03-06T00:31:07.764Z,83.48
2023-03-06T00:33:34.440Z,84.00
2023-03-06T00:36:00.847Z,83.77
2023-03-06T00:38:28.574Z,83.71
2023-03-06T00:40:54.926Z,83.59
2023-03-06T00:43:21.337Z,83.79
2023-03-06T00:45:47.743Z,84.15
2023-03-06T00:48:14.112Z,83.85
2023-03-06T00:50:40.509Z,83.64
2023-03-06T00:53:06.937Z,83.96
2023-03-06T00:55:33.516Z,83.72
2023-03-06T00:57:59.981Z,83.64
2023-03-06T01:00:26.325Z,84.05
2023-03-06T01:02:53.663Z,84.17
2023-03-06T01:05:20.625Z,84.21
2023-03-06T01:07:47.149Z,84.13
2023-03-06T01:10:13.598Z,84.07
2023-03-06T01:12:40.009Z,84.23
2023-03-06T01:15:07.135Z,84.48
2023-03-06T01:17:33.591Z,84.28
2023-03-06T01:20:00.170Z,84.45
2023-03-06T01:22:26.584Z,84.76
2023-03-06T01:24:52.980Z,84.27
2023-03-06T01:27:19.374Z,84.75
2023-03-06T01:29:45.895Z,84.65
2023-03-06T01:32:12.441Z,84.70
2023-03-06T01:34:38.791Z,84.35
2023-03-06T01:37:05.184Z,84.87
2023-03-06T01:39:31.871Z,84.51
2023-03-06T01:41:58.213Z,84.45
2023-03-06T01:44:24.597Z,84.66
2023-03-06T01:46:50.961Z,84.60
2023-03-06T01:49:23.913Z,85.03
2023-03-06T01:51:52.644Z,84.56
2023-03-06T01:54:47.852Z,86.33
2023-03-06T01:57:19.529Z,85.04
2023-03-06T01:59:49.413Z,84.95
2023-03-06T02:02:16.194Z,84.78
2023-03-06T02:04:44.096Z,84.60
2023-03-06T02:07:11.436Z,84.63
2023-03-06T02:09:38.752Z,84.77
2023-03-06T02:12:11.360Z,85.38
2023-03-06T02:14:39.817Z,84.81
2023-03-06T02:17:08.526Z,85.05
2023-03-06T02:20:16.198Z,85.72
2023-03-06T02:23:04.973Z,86.13
2023-03-06T02:25:37.497Z,85.55
2023-03-06T02:28:05.855Z,84.81
2023-03-06T02:34:19.204Z,84.95
2023-03-06T02:36:49.425Z,85.07
2023-03-06T02:39:17.442Z,85.67
2023-03-06T02:41:43.982Z,84.63
2023-03-06T02:44:10.344Z,84.40
2023-03-06T02:46:36.703Z,84.77
2023-03-06T02:49:03.053Z,85.12
2023-03-06T02:51:29.483Z,84.52
2023-03-06T02:53:55.933Z,84.62
2023-03-06T02:56:22.601Z,85.05
2023-03-06T02:58:49.007Z,85.17
2023-03-06T03:01:15.401Z,84.76
2023-03-06T03:03:41.802Z,85.12
2023-03-06T03:06:08.502Z,85.16
2023-03-06T03:08:35.190Z,84.72
2023-03-06T03:11:01.955Z,85.20
2023-03-06T03:13:28.322Z,84.63
2023-03-06T03:16:09.687Z,86.14
2023-03-06T03:18:36.318Z,84.37
2023-03-06T03:21:07.831Z,84.88
2023-03-06T03:23:34.246Z,84.14
2023-03-06T03:26:13.064Z,84.80
2023-03-06T03:28:39.671Z,84.22
2023-03-06T03:31:07.918Z,84.30
2023-03-06T03:33:34.361Z,84.14
2023-03-06T03:36:02.505Z,83.58
2023-03-06T03:38:29.791Z,84.10
2023-03-06T03:40:56.511Z,84.01
2023-03-06T03:43:22.885Z,83.99
2023-03-06T03:45:49.454Z,83.97
2023-03-06T03:48:15.863Z,84.28
2023-03-06T03:50:42.274Z,84.10
2023-03-06T03:53:08.622Z,83.73
2023-03-06T03:55:34.978Z,83.58
2023-03-06T03:58:01.389Z,84.26
2023-03-06T04:00:28.064Z,83.74
2023-03-06T04:02:54.467Z,83.99
2023-03-06T04:05:20.853Z,83.70
2023-03-06T04:07:47.204Z,84.10
2023-03-06T04:10:13.713Z,84.27
2023-03-06T04:12:40.155Z,84.27
2023-03-06T04:15:07.905Z,84.00
2023-03-06T04:17:34.966Z,83.91
2023-03-06T04:20:02.845Z,84.26
2023-03-06T04:22:29.266Z,84.26
2023-03-06T04:24:55.684Z,84.66
2023-03-06T04:27:22.059Z,84.36
2023-03-06T04:29:48.524Z,84.47
2023-03-06T04:32:15.082Z,83.94
2023-03-06T04:34:42.028Z,84.08
2023-03-06T04:37:17.999Z,84.81
2023-03-06T04:39:44.481Z,84.66
2023-03-06T04:42:10.882Z,84.46
2023-03-06T04:44:37.242Z,84.91
2023-03-06T04:47:03.879Z,84.71
2023-03-06T04:49:30.212Z,84.93
2023-03-06T04:51:56.588Z,84.78
2023-03-06T04:54:22.968Z,85.30
2023-03-06T04:56:49.393Z,84.81
2023-03-06T04:59:15.773Z,84.71
2023-03-06T05:01:42.195Z,84.62
2023-03-06T05:04:08.607Z,84.28
2023-03-06T05:06:35.098Z,84.65
2023-03-06T05:09:01.655Z,84.45
2023-03-06T05:11:28.076Z,84.50
2023-03-06T05:13:54.585Z,84.09
2023-03-06T05:16:21.167Z,84.73
2023-03-06T05:18:50.428Z,84.04
2023-03-06T05:21:17.020Z,84.67
2023-03-06T05:23:43.667Z,84.61
2023-03-06T05:26:12.089Z,84.71
2023-03-06T05:28:38.701Z,85.09
2023-03-06T05:31:05.831Z,84.90
2023-03-06T05:33:33.525Z,85.86
2023-03-06T05:36:00.242Z,85.52
2023-03-06T05:38:27.078Z,85.54
2023-03-06T05:40:53.601Z,85.83
2023-03-06T05:43:20.051Z,86.16
2023-03-06T05:45:46.431Z,86.00
2023-03-06T05:48:13.871Z,86.00
2023-03-06T05:50:40.305Z,86.55
2023-03-06T05:53:06.755Z,86.26
2023-03-06T05:55:33.163Z,85.83
2023-03-06T05:57:59.577Z,86.03
2023-03-06T06:00:26.190Z,86.44
2023-03-06T06:02:52.708Z,86.02
2023-03-06T06:05:19.060Z,86.60
2023-03-06T06:07:45.883Z,86.72
2023-03-06T06:10:12.291Z,87.09
2023-03-06T06:12:38.676Z,87.11
2023-03-06T06:15:06.508Z,87.62
2023-03-06T06:17:33.058Z,87.87
2023-03-06T06:19:59.431Z,87.79
2023-03-06T06:22:25.882Z,88.42
2023-03-06T06:24:52.248Z,88.41
2023-03-06T06:27:18.632Z,88.31
2023-03-06T06:29:44.977Z,88.64
2023-03-06T06:32:13.195Z,88.62
2023-03-06T06:34:39.565Z,89.04
2023-03-06T06:37:06.110Z,88.91
2023-03-06T06:39:32.454Z,88.81
2023-03-06T06:42:20.189Z,88.88
2023-03-06T06:44:45.327Z,88.79
2023-03-06T06:47:22.916Z,88.72
2023-03-06T06:49:51.595Z,88.63
2023-03-06T06:52:18.737Z,88.41
2023-03-06T06:54:45.484Z,88.63
2023-03-06T06:57:12.722Z,88.34
2023-03-06T06:59:39.171Z,88.49
2023-03-06T07:02:05.982Z,88.53
2023-03-06T07:04:32.377Z,88.59
2023-03-06T07:06:58.935Z,88.22
2023-03-06T07:09:25.316Z,87.87
2023-03-06T07:11:51.717Z,87.85
2023-03-06T07:14:18.302Z,87.67
2023-03-06T07:16:44.681Z,87.81
2023-03-06T07:19:11.023Z,87.55
2023-03-06T07:21:40.331Z,87.58
2023-03-06T07:24:06.821Z,87.55
2023-03-06T07:26:34.888Z,87.07
2023-03-06T07:29:01.902Z,87.03
2023-03-06T07:31:28.540Z,86.91
2023-03-06T07:33:55.474Z,86.76
2023-03-06T07:36:23.708Z,86.61
2023-03-06T07:38:50.161Z,86.88
2023-03-06T07:41:20.422Z,86.93
2023-03-06T07:43:48.468Z,86.72
2023-03-06T07:46:15.637Z,86.92
2023-03-06T07:48:43.089Z,86.81
2023-03-06T07:51:15.612Z,87.14
2023-03-06T07:53:42.282Z,86.93
2023-03-06T07:56:09.361Z,87.37
2023-03-06T07:58:36.800Z,87.48
2023-03-06T08:01:05.350Z,87.39
2023-03-06T08:03:32.326Z,86.96
2023-03-06T08:06:10.604Z,87.41
2023-03-06T08:08:39.456Z,85.90
2023-03-06T08:11:07.854Z,85.21
2023-03-06T08:13:34.410Z,84.99
2023-03-06T08:16:01.420Z,84.70
2023-03-06T08:18:28.775Z,85.29
2023-03-06T08:21:22.591Z,86.21
2023-03-06T08:23:49.185Z,84.77
2023-03-06T08:26:18.808Z,84.30
2023-03-06T08:28:46.080Z,83.90
2023-03-06T08:31:23.978Z,83.44
2023-03-06T08:33:50.366Z,83.06
2023-03-06T08:36:16.958Z,83.38
2023-03-06T08:38:43.368Z,83.44
2023-03-06T08:41:09.842Z,83.03
2023-03-06T08:43:36.248Z,83.13
2023-03-06T08:46:02.996Z,82.54
2023-03-06T08:48:29.577Z,83.11
2023-03-06T08:50:56.136Z,82.72
2023-03-06T08:53:33.453Z,82.40
2023-03-06T08:56:21.998Z,82.21
2023-03-06T08:58:48.647Z,81.26
2023-03-06T09:01:18.208Z,81.14
2023-03-06T09:03:45.242Z,80.55
2023-03-06T09:06:12.116Z,80.18
2023-03-06T09:08:42.884Z,80.09
2023-03-06T09:11:10.845Z,80.29
2023-03-06T09:13:37.585Z,80.09
2023-03-06T09:16:04.196Z,80.69
2023-03-06T09:18:30.650Z,80.86
2023-03-06T09:20:57.092Z,80.93
2023-03-06T09:23:23.460Z,80.61
2023-03-06T09:25:54.380Z,80.89
2023-03-06T09:28:21.147Z,80.78
2023-03-06T09:30:47.930Z,80.20
2023-03-06T09:33:14.870Z,79.57
2023-03-06T09:35:53.112Z,79.81
2023-03-06T09:38:21.451Z,77.53
2023-03-06T09:41:20.822Z,78.65
2023-03-06T09:43:50.109Z,77.64
2023-03-06T09:46:22.633Z,78.79
2023-03-06T09:48:57.902Z,79.01
2023-03-06T09:51:34.162Z,79.42
2023-03-06T09:54:14.410Z,80.47
2023-03-06T09:56:45.894Z,79.26
2023-03-06T09:59:17.865Z,77.24
2023-03-06T10:01:53.396Z,77.37
2023-03-06T10:04:35.272Z,76.46
2023-03-06T10:07:20.613Z,76.54
2023-03-06T10:09:59.803Z,76.56
2023-03-06T10:12:44.710Z,77.29
2023-03-06T10:15:19.411Z,75.98
2023-03-06T10:17:46.335Z,72.89
2023-03-06T10:20:18.293Z,73.11
2023-03-06T10:23:01.273Z,72.02
2023-03-06T10:25:43.214Z,72.62
2023-03-06T10:28:17.650Z,72.22
2023-03-06T10:31:15.431Z,74.44
2023-03-06T10:33:50.787Z,73.81
2023-03-06T10:36:19.380Z,73.24
2023-03-06T10:38:48.479Z,72.63
2023-03-06T10:41:38.196Z,72.46
2023-03-06T10:44:04.631Z,70.05
2023-03-06T10:46:34.381Z,69.83
2023-03-06T10:49:03.396Z,68.94
2023-03-06T10:51:30.866Z,68.43
2023-03-06T10:54:18.365Z,70.89
2023-03-06T10:56:46.485Z,70.81
2023-03-06T10:59:17.164Z,69.93
2023-03-06T11:01:46.609Z,67.42
2023-03-06T11:04:17.423Z,68.23
2023-03-06T11:06:44.173Z,66.66
2023-03-06T11:09:22.440Z,65.42
2023-03-06T11:11:50.547Z,63.94
2023-03-06T11:14:27.496Z,63.35
2023-03-06T11:16:54.122Z,62.64
2023-03-06T11:19:26.485Z,63.29
2023-03-06T11:22:22.472Z,65.29
2023-03-06T11:24:52.689Z,63.25
2023-03-06T11:27:34.815Z,65.12
2023-03-06T11:30:19.009Z,63.72
2023-03-06T11:32:58.109Z,62.14
2023-03-06T11:35:50.717Z,61.25
2023-03-06T11:38:25.764Z,59.88
2023-03-06T11:40:56.590Z,58.57
2023-03-06T11:43:49.958Z,59.27
2023-03-06T11:46:31.073Z,54.52
2023-03-06T11:49:16.428Z,57.02
2023-03-06T11:51:48.831Z,55.83
2023-03-06T11:54:15.288Z,55.58
2023-03-06T11:56:54.841Z,54.64
2023-03-06T11:59:51.293Z,54.01
2023-03-06T12:02:46.996Z,54.41
2023-03-06T12:05:37.939Z,53.73
2023-03-06T12:08:20.086Z,53.93
2023-03-06T12:10:54.326Z,51.95
2023-03-06T12:13:37.775Z,53.96
2023-03-06T12:16:07.693Z,52.62
2023-03-06T12:19:08.338Z,53.05
2023-03-06T12:22:04.819Z,53.29
2023-03-06T12:24:48.632Z,53.96
2023-03-06T12:27:29.811Z,53.52
2023-03-06T12:30:14.534Z,51.91
2023-03-06T12:32:52.930Z,52.56
2023-03-06T12:35:54.881Z,52.42
2023-03-06T12:38:46.268Z,48.89
2023-03-06T12:41:32.271Z,48.72
2023-03-06T12:44:25.891Z,50.01
2023-03-06T12:46:57.743Z,48.44
2023-03-06T12:49:32.534Z,49.58
2023-03-06T12:52:02.232Z,48.99
2023-03-06T12:54:34.149Z,49.35
2023-03-06T12:57:00.949Z,50.13
2023-03-06T12:59:44.287Z,51.14
2023-03-06T13:02:13.975Z,51.12
2023-03-06T13:05:00.141Z,51.58
2023-03-06T13:07:53.118Z,51.73
2023-03-06T13:10:33.797Z,51.95
2023-03-06T13:13:32.563Z,53.08
2023-03-06T13:16:08.385Z,52.69
2023-03-06T13:18:35.035Z,53.51
2023-03-06T13:21:04.321Z,53.74
2023-03-06T13:23:33.471Z,54.46
2023-03-06T13:26:24.430Z,54.20
2023-03-06T13:28:53.915Z,53.79
2023-03-06T13:31:52.165Z,54.25
2023-03-06T13:34:50.063Z,54.68
2023-03-06T13:37:23.407Z,55.67
2023-03-06T13:39:55.918Z,55.62
2023-03-06T13:42:37.886Z,55.80
2023-03-06T13:45:22.633Z,55.66
2023-03-06T13:50:43.760Z,55.22
2023-03-06T13:53:18.823Z,54.60
2023-03-06T13:56:18.725Z,54.33
2023-03-06T13:58:45.010Z,53.66
2023-03-06T14:01:34.333Z,53.35
2023-03-06T14:04:03.662Z,54.02
2023-03-06T14:06:36.197Z,52.45
2023-03-06T14:09:06.067Z,53.05
2023-03-06T14:11:34.439Z,52.21
2023-03-06T14:14:00.991Z,52.59
2023-03-06T14:16:37.592Z,52.86
2023-03-06T14:19:19.353Z,52.69
2023-03-06T14:21:55.583Z,52.32
2023-03-06T14:24:33.570Z,52.68
2023-03-06T14:27:00.000Z,51.35
2023-03-06T14:29:28.709Z,51.68
2023-03-06T14:31:57.766Z,52.29
2023-03-06T14:34:27.357Z,52.20
2023-03-06T14:36:55.929Z,52.02
2023-03-06T14:39:29.650Z,52.52
2023-03-06T14:42:15.250Z,53.91
2023-03-06T14:44:41.989Z,52.87
2023-03-06T14:47:27.037Z,53.87
2023-03-06T14:50:23.160Z,54.33
2023-03-06T14:52:55.126Z,54.83
2023-03-06T14:55:25.181Z,54.35
2023-03-06T14:58:14.404Z,54.56
2023-03-06T15:00:49.378Z,54.17
2023-03-06T15:03:24.611Z,53.98
2023-03-06T15:05:51.850Z,52.96
2023-03-06T15:08:25.403Z,54.58
2023-03-06T15:11:01.398Z,55.13
2023-03-06T15:13:30.183Z,54.43
2023-03-06T15:16:08.039Z,54.19
2023-03-06T15:18:42.487Z,55.05
2023-03-06T15:21:18.953Z,54.72
2023-03-06T15:23:50.730Z,54.38
2023-03-06T15:26:22.827Z,53.82
2023-03-06T15:29:09.419Z,53.76
2023-03-06T15:31:41.529Z,53.21
2023-03-06T15:34:09.122Z,52.73
2023-03-06T15:36:36.764Z,52.37
2023-03-06T15:39:25.729Z,53.01
2023-03-06T15:42:18.169Z,53.06
2023-03-06T15:45:15.849Z,53.29
2023-03-06T15:47:44.642Z,51.29
2023-03-06T15:50:25.906Z,51.71
2023-03-06T15:52:53.229Z,51.46
2023-03-06T15:55:22.668Z,51.75
2023-03-06T15:57:56.901Z,50.87
2023-03-06T16:00:29.432Z,51.19
2023-03-06T16:02:57.190Z,50.60
2023-03-06T16:05:25.092Z,50.05
2023-03-06T16:07:51.829Z,49.72
2023-03-06T16:10:21.468Z,49.86
2023-03-06T16:12:51.254Z,50.53
2023-03-06T16:15:29.033Z,51.38
2023-03-06T16:17:59.010Z,50.59
2023-03-06T16:20:27.752Z,51.34
2023-03-06T16:22:54.786Z,51.39
2023-03-06T16:25:22.896Z,50.67
2023-03-06T16:27:57.899Z,51.23
2023-03-06T16:30:27.034Z,50.68
2023-03-06T16:32:53.414Z,51.41
2023-03-06T16:35:19.939Z,51.66
2023-03-06T16:37:47.301Z,52.14
2023-03-06T16:40:19.830Z,52.65
2023-03-06T16:42:46.901Z,52.93
2023-03-06T16:45:13.609Z,53.20
2023-03-06T16:47:40.444Z,53.71
2023-03-06T16:50:20.828Z,54.39
2023-03-06T16:52:47.166Z,54.79
2023-03-06T16:55:13.714Z,55.18
2023-03-06T16:57:40.890Z,55.81
2023-03-06T17:00:08.092Z,56.66
2023-03-06T17:02:34.534Z,57.05
2023-03-06T17:05:01.043Z,57.87
2023-03-06T17:07:27.412Z,58.54
2023-03-06T17:09:54.099Z,59.18
2023-03-06T17:12:20.448Z,59.12
2023-03-06T17:14:46.925Z,59.57
2023-03-06T17:17:13.391Z,59.70
2023-03-06T17:19:39.739Z,60.05
2023-03-06T17:22:06.108Z,60.13
2023-03-06T17:24:32.551Z,60.88
2023-03-06T17:26:59.333Z,60.59
2023-03-06T17:29:25.737Z,60.81
2023-03-06T17:31:52.121Z,60.85
2023-03-06T17:34:18.677Z,60.90
2023-03-06T17:36:45.337Z,61.00
2023-03-06T17:39:12.851Z,61.26
2023-03-06T17:41:39.262Z,61.16
2023-03-06T17:44:05.627Z,61.46
2023-03-06T17:46:32.138Z,61.44
2023-03-06T17:48:58.667Z,61.62
2023-03-06T17:51:25.053Z,61.70
2023-03-06T17:53:52.187Z,61.65
2023-03-06T17:56:24.523Z,61.82
2023-03-06T17:58:50.880Z,61.47
2023-03-06T18:01:22.899Z,61.79
2023-03-06T18:03:51.019Z,61.74
2023-03-06T18:06:18.286Z,62.00
2023-03-06T18:08:45.886Z,61.90
2023-03-06T18:11:12.789Z,62.09
2023-03-06T18:13:41.663Z,62.06
2023-03-06T18:16:09.940Z,62.13
2023-03-06T18:18:36.395Z,62.17
2023-03-06T18:21:07.854Z,62.23
2023-03-06T18:23:35.883Z,62.24
2023-03-06T18:26:26.864Z,62.33
2023-03-06T18:28:56.302Z,62.21
2023-03-06T18:31:25.418Z,62.19
2023-03-06T18:33:53.660Z,62.33
2023-03-06T18:36:28.565Z,62.19
2023-03-06T18:38:55.653Z,62.03
2023-03-06T18:41:22.535Z,62.02
2023-03-06T18:43:57.639Z,62.57
2023-03-06T18:46:25.423Z,62.52
2023-03-06T18:48:52.057Z,62.28
2023-03-06T18:51:20.020Z,62.58
2023-03-06T18:53:46.703Z,62.66
2023-03-06T18:56:21.763Z,62.94
2023-03-06T18:58:48.605Z,62.71
2023-03-06T19:01:15.032Z,62.67
2023-03-06T19:03:41.752Z,62.45
2023-03-06T19:06:11.641Z,62.48
2023-03-06T19:08:39.724Z,62.39
2023-03-06T19:11:09.271Z,62.26
2023-03-06T19:13:36.312Z,62.30
2023-03-06T19:16:03.226Z,62.29
2023-03-06T19:18:30.240Z,62.15
2023-03-06T19:21:08.261Z,62.24
2023-03-06T19:23:34.729Z,61.81
2023-03-06T19:26:01.124Z,61.76
2023-03-06T19:28:27.783Z,61.91
2023-03-06T19:30:54.436Z,61.91
2023-03-06T19:33:20.789Z,61.51
2023-03-06T19:35:47.890Z,61.65
2023-03-06T19:38:15.533Z,61.49
2023-03-06T19:40:49.013Z,61.55
2023-03-06T19:43:15.446Z,61.60
2023-03-06T19:45:43.816Z,61.59
2023-03-06T19:48:12.356Z,61.35
2023-03-06T19:50:39.851Z,61.48
2023-03-06T19:53:07.311Z,61.09
2023-03-06T19:55:34.155Z,61.07
2023-03-06T19:58:00.581Z,60.74
2023-03-06T20:00:26.995Z,60.89
2023-03-06T20:02:53.358Z,60.49
2023-03-06T20:05:20.065Z,60.55
2023-03-06T20:07:46.507Z,60.50
2023-03-06T20:10:13.076Z,60.58
2023-03-06T20:12:39.500Z,60.49
2023-03-06T20:15:06.759Z,60.41
2023-03-06T20:17:34.077Z,60.40
2023-03-06T20:20:00.636Z,60.19
2023-03-06T20:22:27.053Z,60.43
2023-03-06T20:24:55.044Z,60.42
2023-03-06T20:27:21.402Z,60.08
2023-03-06T20:29:47.843Z,59.99
2023-03-06T20:32:14.247Z,60.31
2023-03-06T20:34:40.746Z,60.63
2023-03-06T20:37:08.651Z,60.43
2023-03-06T20:39:35.826Z,60.48
2023-03-06T20:42:03.848Z,60.66
2023-03-06T20:44:30.537Z,60.81
2023-03-06T20:46:56.899Z,61.24
2023-03-06T20:49:24.628Z,61.19
2023-03-06T20:51:52.292Z,61.78
2023-03-06T20:54:18.731Z,62.02
2023-03-06T20:56:48.312Z,62.38
2023-03-06T20:59:15.354Z,62.14
2023-03-06T21:01:44.332Z,62.75
2023-03-06T21:04:13.799Z,62.95
2023-03-06T21:06:42.442Z,62.83
2023-03-06T21:09:08.889Z,63.03
2023-03-06T21:11:35.488Z,63.27
2023-03-06T21:14:02.112Z,63.02
2023-03-06T21:16:30.391Z,63.35
2023-03-06T21:18:58.536Z,63.21
2023-03-06T21:21:27.411Z,63.12
2023-03-06T21:23:54.060Z,63.06
2023-03-06T21:26:23.030Z,63.20
2023-03-06T21:28:50.065Z,63.10
2023-03-06T21:31:18.965Z,63.08
2023-03-06T21:33:47.069Z,63.19
2023-03-06T21:36:13.481Z,63.06
2023-03-06T21:38:40.130Z,62.59
2023-03-06T21:41:20.641Z,62.74
2023-03-06T21:43:47.341Z,62.70
2023-03-06T21:46:14.084Z,62.21
2023-03-06T21:48:40.931Z,61.82
2023-03-06T21:51:12.908Z,61.93
2023-03-06T21:53:44.323Z,62.36
2023-03-06T21:56:12.173Z,61.96
2023-03-06T21:58:38.596Z,61.87
2023-03-06T22:01:09.953Z,62.43
2023-03-06T22:03:36.503Z,61.78
2023-03-06T22:06:21.456Z,62.19
2023-03-06T22:08:48.256Z,61.98
2023-03-06T22:11:17.543Z,62.28
2023-03-06T22:13:44.818Z,62.03
2023-03-06T22:16:12.233Z,61.95
2023-03-06T22:18:38.781Z,61.84
2023-03-06T22:21:09.653Z,62.27
2023-03-06T22:23:36.689Z,61.96
2023-03-06T22:26:05.163Z,62.14
2023-03-06T22:28:32.370Z,62.25
2023-03-06T22:31:06.212Z,62.51
2023-03-06T22:33:32.717Z,62.28
2023-03-06T22:36:06.132Z,62.46
2023-03-06T22:38:34.524Z,62.94
2023-03-06T22:41:01.594Z,63.37
2023-03-06T22:43:27.975Z,64.71
2023-03-06T22:45:54.433Z,65.91
2023-03-06T22:48:21.511Z,67.76
2023-03-06T22:50:47.876Z,68.70
2023-03-06T22:53:14.271Z,69.51
2023-03-06T22:55:40.844Z,70.40
2023-03-06T22:58:07.790Z,71.41
2023-03-06T23:00:34.150Z,72.34
2023-03-06T23:03:01.216Z,73.12
2023-03-06T23:05:29.431Z,75.16
2023-03-06T23:07:55.950Z,75.36
2023-03-06T23:10:22.445Z,76.24
2023-03-06T23:12:48.819Z,77.24
2023-03-06T23:15:15.362Z,77.75
2023-03-06T23:17:41.735Z,78.38
2023-03-06T23:20:10.148Z,79.33
2023-03-06T23:22:36.598Z,79.65
2023-03-06T23:25:02.996Z,80.69
2023-03-06T23:27:29.469Z,81.01
2023-03-06T23:29:58.803Z,81.87
2023-03-06T23:32:25.330Z,82.02
2023-03-06T23:34:52.135Z,82.56
2023-03-06T23:37:18.481Z,83.12
2023-03-06T23:39:44.875Z,83.70
2023-03-06T23:42:11.258Z,83.83
2023-03-06T23:44:37.631Z,84.15
2023-03-06T23:47:04.098Z,84.48
2023-03-06T23:49:30.537Z,85.55
2023-03-06T23:51:56.887Z,85.67
2023-03-06T23:54:23.347Z,85.49
2023-03-06T23:56:49.696Z,85.90
2023-03-06T23:59:16.134Z,86.47
